createdAt,value
2023-03-15T00:01:47.144Z,2.90
2023-03-15T00:04:22.384Z,2.80
2023-03-15T00:06:50.789Z,2.70
2023-03-15T00:09:19.536Z,2.70
2023-03-15T00:11:56.378Z,2.50
2023-03-15T00:14:31.795Z,2.40
2023-03-15T00:17:06.478Z,2.30
2023-03-15T00:19:41.327Z,2.20
2023-03-15T00:22:10.576Z,2.20
2023-03-15T00:24:39.041Z,2.30
2023-03-15T00:27:15.668Z,2.20
2023-03-15T00:29:44.174Z,2.20
2023-03-15T00:32:12.767Z,2.20
2023-03-15T00:34:47.436Z,2.20
2023-03-15T00:37:17.115Z,2.20
2023-03-15T00:39:53.380Z,2.20
2023-03-15T00:42:34.416Z,2.20
2023-03-15T00:45:03.433Z,2.20
2023-03-15T00:47:38.479Z,2.10
2023-03-15T00:50:07.336Z,2.00
2023-03-15T00:52:43.401Z,1.90
2023-03-15T00:55:14.814Z,1.80
2023-03-15T00:57:52.697Z,1.70
2023-03-15T01:00:25.154Z,1.70
2023-03-15T01:03:01.480Z,1.70
2023-03-15T01:05:36.483Z,1.70
2023-03-15T01:08:05.611Z,1.80
2023-03-15T01:10:43.424Z,1.80
2023-03-15T01:13:19.440Z,1.80
2023-03-15T01:15:55.009Z,1.80
2023-03-15T01:18:30.443Z,1.80
2023-03-15T01:20:59.704Z,1.80
2023-03-15T01:23:28.089Z,1.70
2023-03-15T01:26:03.666Z,1.70
2023-03-15T01:28:34.120Z,1.60
2023-03-15T01:31:02.880Z,1.70
2023-03-15T01:33:38.716Z,1.80
2023-03-15T01:36:08.950Z,1.70
2023-03-15T01:38:37.740Z,1.70
2023-03-15T01:41:13.749Z,1.70
2023-03-15T01:43:48.985Z,1.80
2023-03-15T01:46:32.519Z,1.80
2023-03-15T01:49:13.732Z,1.90
2023-03-15T01:51:48.071Z,1.90
2023-03-15T01:54:27.486Z,1.90
2023-03-15T01:57:02.564Z,2.00
2023-03-15T01:59:43.486Z,2.00
2023-03-15T02:02:21.519Z,2.00
2023-03-15T02:04:54.476Z,2.00
2023-03-15T02:07:31.538Z,2.00
2023-03-15T02:10:10.472Z,2.00
2023-03-15T02:12:43.465Z,2.10
2023-03-15T02:15:27.541Z,2.10
2023-03-15T02:18:06.343Z,2.10
2023-03-15T02:20:48.556Z,2.20
2023-03-15T02:23:19.179Z,2.20
2023-03-15T02:26:03.639Z,2.20
2023-03-15T02:28:34.190Z,2.20
2023-03-15T02:31:09.563Z,2.20
2023-03-15T02:33:43.425Z,2.40
2023-03-15T02:36:24.795Z,2.40
2023-03-15T02:39:00.586Z,2.20
2023-03-15T02:41:33.462Z,2.30
2023-03-15T02:44:14.839Z,2.30
2023-03-15T02:46:51.545Z,2.30
2023-03-15T02:49:21.563Z,2.30
2023-03-15T02:51:56.492Z,2.30
2023-03-15T02:54:25.268Z,2.40
2023-03-15T02:57:00.565Z,2.40
2023-03-15T02:59:37.592Z,2.40
2023-03-15T03:02:08.264Z,2.40
2023-03-15T03:04:43.928Z,2.40
2023-03-15T03:07:12.845Z,2.60
2023-03-15T03:09:41.352Z,2.40
2023-03-15T03:12:16.553Z,2.30
2023-03-15T03:15:06.529Z,2.40
2023-03-15T03:17:45.734Z,2.40
2023-03-15T03:20:21.827Z,2.50
2023-03-15T03:22:50.433Z,2.50
2023-03-15T03:25:25.822Z,2.50
2023-03-15T03:27:57.415Z,2.50
2023-03-15T03:30:33.561Z,2.50
2023-03-15T03:33:08.836Z,2.60
2023-03-15T03:35:37.452Z,2.60
2023-03-15T03:38:05.984Z,2.70
2023-03-15T03:40:40.637Z,2.70
2023-03-15T03:43:10.314Z,2.80
2023-03-15T03:45:46.648Z,2.80
2023-03-15T03:48:21.610Z,2.80
2023-03-15T03:50:50.100Z,2.90
2023-03-15T03:53:25.890Z,2.80
2023-03-15T03:56:01.904Z,2.80
2023-03-15T03:58:30.404Z,2.90
2023-03-15T04:01:06.646Z,2.90
2023-03-15T04:03:41.859Z,2.90
2023-03-15T04:06:10.502Z,2.90
2023-03-15T04:08:45.935Z,2.80
2023-03-15T04:11:24.638Z,2.80
2023-03-15T04:14:12.623Z,2.80
2023-03-15T04:16:49.626Z,2.80
2023-03-15T04:19:18.062Z,2.80
2023-03-15T04:21:47.458Z,2.80
2023-03-15T04:24:22.626Z,2.80
2023-03-15T04:26:51.247Z,2.80
2023-03-15T04:29:25.922Z,2.90
2023-03-15T04:32:01.860Z,2.90
2023-03-15T04:34:37.968Z,2.90
2023-03-15T04:37:07.467Z,2.90
2023-03-15T04:39:42.651Z,2.90
2023-03-15T04:42:12.139Z,2.90
2023-03-15T04:44:47.926Z,2.90
2023-03-15T04:47:24.599Z,2.90
2023-03-15T04:49:53.329Z,2.80
2023-03-15T04:52:28.894Z,2.80
2023-03-15T04:55:03.654Z,2.80
2023-03-15T04:57:32.287Z,2.80
2023-03-15T05:00:07.629Z,2.80
2023-03-15T05:02:46.936Z,2.80
2023-03-15T05:05:15.753Z,2.80
2023-03-15T05:07:50.676Z,2.80
2023-03-15T05:10:26.908Z,2.70
2023-03-15T05:12:55.351Z,2.70
2023-03-15T05:15:36.931Z,2.80
2023-03-15T05:18:13.700Z,2.80
2023-03-15T05:20:42.177Z,2.90
2023-03-15T05:23:10.553Z,2.90
2023-03-15T05:25:45.908Z,2.80
2023-03-15T05:28:18.535Z,2.80
2023-03-15T05:30:53.650Z,2.80
2023-03-15T05:33:24.981Z,2.80
2023-03-15T05:36:02.699Z,2.80
2023-03-15T05:38:37.959Z,2.70
2023-03-15T05:41:07.336Z,2.60
2023-03-15T05:43:42.982Z,2.60
2023-03-15T05:46:17.714Z,2.50
2023-03-15T05:48:47.679Z,2.40
2023-03-15T05:51:22.965Z,2.40
2023-03-15T05:53:58.085Z,2.30
2023-03-15T05:56:27.087Z,2.30
2023-03-15T05:59:01.638Z,2.30
2023-03-15T06:01:36.713Z,2.30
2023-03-15T06:04:06.963Z,2.30
2023-03-15T06:06:42.976Z,2.30
2023-03-15T06:09:18.104Z,2.20
2023-03-15T06:11:46.964Z,2.20
2023-03-15T06:14:22.106Z,2.20
2023-03-15T06:17:04.015Z,2.20
2023-03-15T06:19:35.804Z,2.20
2023-03-15T06:22:12.763Z,2.20
2023-03-15T06:24:41.264Z,2.20
2023-03-15T06:27:10.266Z,2.20
2023-03-15T06:29:46.018Z,2.20
2023-03-15T06:32:14.617Z,2.20
2023-03-15T06:34:44.425Z,2.20
2023-03-15T06:37:34.183Z,2.20
2023-03-15T06:40:04.600Z,2.20
2023-03-15T06:42:39.699Z,2.30
2023-03-15T06:45:17.074Z,2.30
2023-03-15T06:47:45.902Z,2.30
2023-03-15T06:50:22.736Z,2.40
2023-03-15T06:52:57.705Z,2.50
2023-03-15T06:55:26.257Z,2.40
2023-03-15T06:58:01.701Z,2.50
2023-03-15T07:00:37.087Z,2.50
2023-03-15T07:03:06.018Z,2.60
2023-03-15T07:05:42.795Z,2.60
2023-03-15T07:08:17.737Z,2.60
2023-03-15T07:10:46.914Z,2.70
2023-03-15T07:13:23.043Z,2.70
2023-03-15T07:16:04.943Z,2.80
2023-03-15T07:18:34.661Z,2.80
2023-03-15T07:21:13.812Z,2.80
2023-03-15T07:23:42.316Z,2.80
2023-03-15T07:26:10.816Z,2.90
2023-03-15T07:28:45.873Z,3.10
2023-03-15T07:31:14.473Z,3.00
2023-03-15T07:33:43.145Z,3.10
2023-03-15T07:36:19.746Z,3.10
2023-03-15T07:38:48.182Z,3.10
2023-03-15T07:41:23.058Z,3.20
2023-03-15T07:43:58.622Z,3.20
2023-03-15T07:46:27.773Z,3.20
2023-03-15T07:49:02.783Z,3.30
2023-03-15T07:51:40.060Z,3.30
2023-03-15T07:54:08.588Z,3.40
2023-03-15T07:56:43.942Z,3.50
2023-03-15T07:59:19.110Z,3.60
2023-03-15T08:01:47.606Z,3.60
2023-03-15T08:04:22.809Z,3.70
2023-03-15T08:06:59.738Z,3.80
2023-03-15T08:09:28.004Z,3.90
2023-03-15T08:12:03.069Z,4.10
2023-03-15T08:14:38.854Z,4.10
2023-03-15T08:17:16.264Z,4.20
2023-03-15T08:19:52.084Z,4.20
2023-03-15T08:22:28.802Z,4.30
2023-03-15T08:24:57.729Z,4.30
2023-03-15T08:27:34.119Z,4.40
2023-03-15T08:30:02.646Z,4.40
2023-03-15T08:32:31.337Z,4.50
2023-03-15T08:35:07.066Z,4.50
2023-03-15T08:37:43.922Z,4.50
2023-03-15T08:40:13.985Z,4.50
2023-03-15T08:42:48.825Z,4.50
2023-03-15T08:45:23.847Z,4.50
2023-03-15T08:47:55.823Z,4.50
2023-03-15T08:50:31.117Z,4.60
2023-03-15T08:53:07.859Z,4.60
2023-03-15T08:55:36.379Z,4.70
2023-03-15T08:58:12.142Z,4.70
2023-03-15T09:00:46.801Z,4.80
2023-03-15T09:03:16.370Z,4.80
2023-03-15T09:05:50.878Z,5.10
2023-03-15T09:08:27.850Z,5.20
2023-03-15T09:11:00.166Z,5.20
2023-03-15T09:13:35.838Z,5.30
2023-03-15T09:16:17.896Z,5.40
2023-03-15T09:18:46.521Z,5.50
2023-03-15T09:21:21.852Z,5.50
2023-03-15T09:23:58.190Z,5.50
2023-03-15T09:26:26.856Z,5.40
2023-03-15T09:29:01.946Z,5.40
2023-03-15T09:31:38.270Z,5.40
2023-03-15T09:34:07.361Z,5.60
2023-03-15T09:36:42.969Z,5.70
2023-03-15T09:39:13.629Z,5.60
2023-03-15T09:41:52.671Z,5.70
2023-03-15T09:44:42.892Z,5.70
2023-03-15T09:47:22.247Z,5.80
2023-03-15T09:50:01.899Z,5.80
2023-03-15T09:52:39.393Z,5.80
2023-03-15T09:55:23.959Z,5.80
2023-03-15T09:57:55.662Z,5.80
2023-03-15T10:00:35.983Z,6.10
2023-03-15T10:03:07.695Z,6.40
2023-03-15T10:05:50.155Z,6.80
2023-03-15T10:08:20.607Z,7.00
2023-03-15T10:11:00.932Z,7.10
2023-03-15T10:13:53.747Z,7.00
2023-03-15T10:16:47.212Z,7.10
2023-03-15T10:19:33.175Z,7.10
2023-03-15T10:22:05.668Z,7.20
2023-03-15T10:24:48.097Z,7.60
2023-03-15T10:27:23.039Z,7.90
2023-03-15T10:30:01.219Z,8.00
2023-03-15T10:32:37.899Z,8.00
2023-03-15T10:35:22.175Z,8.20
2023-03-15T10:37:50.378Z,8.50
2023-03-15T10:40:47.298Z,8.70
2023-03-15T10:43:22.326Z,9.00
2023-03-15T10:46:08.308Z,8.90
2023-03-15T10:48:38.428Z,9.30
2023-03-15T10:51:15.004Z,9.80
2023-03-15T10:53:54.238Z,10.20
2023-03-15T10:56:34.149Z,10.20
2023-03-15T10:59:12.260Z,9.80
2023-03-15T11:01:49.082Z,9.60
2023-03-15T11:04:21.941Z,9.30
2023-03-15T11:06:59.048Z,9.10
2023-03-15T11:09:28.961Z,9.00
2023-03-15T11:12:08.151Z,9.00
2023-03-15T11:14:47.274Z,9.20
2023-03-15T11:17:25.464Z,9.80
2023-03-15T11:20:03.996Z,10.10
2023-03-15T11:22:33.773Z,9.60
2023-03-15T11:25:08.985Z,9.30
2023-03-15T11:27:37.621Z,9.20
2023-03-15T11:30:21.085Z,9.20
2023-03-15T11:32:55.975Z,9.10
2023-03-15T11:35:29.810Z,8.90
2023-03-15T11:38:15.783Z,8.70
2023-03-15T11:40:48.141Z,8.40
2023-03-15T11:43:28.091Z,8.20
2023-03-15T11:46:02.470Z,8.10
2023-03-15T11:48:43.004Z,8.10
2023-03-15T11:51:13.638Z,8.00
2023-03-15T11:53:54.360Z,7.80
2023-03-15T11:56:32.281Z,7.90
2023-03-15T11:59:11.587Z,8.10
2023-03-15T12:01:55.067Z,8.40
2023-03-15T12:04:42.407Z,9.00
2023-03-15T12:07:43.214Z,9.50
2023-03-15T12:10:33.808Z,9.30
2023-03-15T12:13:16.078Z,9.20
2023-03-15T12:15:56.541Z,9.10
2023-03-15T12:18:40.997Z,9.00
2023-03-15T12:21:19.767Z,9.00
2023-03-15T12:24:05.351Z,9.20
2023-03-15T12:26:43.013Z,9.50
2023-03-15T12:29:26.343Z,9.80
2023-03-15T12:32:07.979Z,9.80
2023-03-15T12:34:52.334Z,9.80
2023-03-15T12:37:24.544Z,9.90
2023-03-15T12:40:07.090Z,10.10
2023-03-15T12:43:09.726Z,10.30
2023-03-15T12:45:53.448Z,10.40
2023-03-15T12:48:30.298Z,10.40
2023-03-15T12:51:23.353Z,10.50
2023-03-15T12:53:52.507Z,10.70
2023-03-15T12:56:47.104Z,10.80
2023-03-15T12:59:37.313Z,10.40
2023-03-15T13:02:41.671Z,10.20
2023-03-15T13:05:26.070Z,10.20
2023-03-15T13:07:59.112Z,10.50
2023-03-15T13:10:43.562Z,10.70
2023-03-15T13:13:34.985Z,11.00
2023-03-15T13:16:25.126Z,11.40
2023-03-15T13:19:06.397Z,11.40
2023-03-15T13:21:44.040Z,11.30
2023-03-15T13:24:20.672Z,11.00
2023-03-15T13:27:01.348Z,10.90
2023-03-15T13:29:32.405Z,10.90
2023-03-15T13:32:21.356Z,10.80
2023-03-15T13:34:50.267Z,10.70
2023-03-15T13:37:30.072Z,10.70
2023-03-15T13:40:10.372Z,10.70
2023-03-15T13:42:41.390Z,10.90
2023-03-15T13:45:22.141Z,11.00
2023-03-15T13:47:50.978Z,11.20
2023-03-15T13:50:28.066Z,11.20
2023-03-15T13:53:04.093Z,11.40
2023-03-15T13:55:37.578Z,11.50
2023-03-15T13:58:17.104Z,11.20
2023-03-15T14:00:54.432Z,11.00
2023-03-15T14:03:24.557Z,10.80
2023-03-15T14:06:02.201Z,10.90
2023-03-15T14:08:33.430Z,11.00
2023-03-15T14:11:14.438Z,11.00
2023-03-15T14:13:58.213Z,10.90
2023-03-15T14:17:01.162Z,11.00
2023-03-15T14:19:44.198Z,11.20
2023-03-15T14:22:20.101Z,11.20
2023-03-15T14:24:58.180Z,11.20
2023-03-15T14:27:37.180Z,11.10
2023-03-15T14:30:06.847Z,10.90
2023-03-15T14:32:45.202Z,10.60
2023-03-15T14:35:30.485Z,10.70
2023-03-15T14:38:04.309Z,10.80
2023-03-15T14:40:42.138Z,10.90
2023-03-15T14:43:12.709Z,10.90
2023-03-15T14:45:50.560Z,10.90
2023-03-15T14:48:26.169Z,10.80
2023-03-15T14:51:02.505Z,10.70
2023-03-15T14:53:44.188Z,10.60
2023-03-15T14:56:14.491Z,10.40
2023-03-15T14:58:51.393Z,10.40
2023-03-15T15:01:22.654Z,10.50
2023-03-15T15:04:01.155Z,10.50
2023-03-15T15:06:38.555Z,10.60
2023-03-15T15:09:07.236Z,10.70
2023-03-15T15:11:42.209Z,10.70
2023-03-15T15:14:21.462Z,10.70
2023-03-15T15:16:57.912Z,10.60
2023-03-15T15:19:33.563Z,10.60
2023-03-15T15:22:08.226Z,10.50
2023-03-15T15:24:36.742Z,10.50
2023-03-15T15:27:12.126Z,10.40
2023-03-15T15:29:42.194Z,10.40
2023-03-15T15:32:17.210Z,10.40
2023-03-15T15:34:45.680Z,10.30
2023-03-15T15:37:20.239Z,10.20
2023-03-15T15:39:49.573Z,10.20
2023-03-15T15:42:24.523Z,10.30
2023-03-15T15:45:01.464Z,10.20
2023-03-15T15:47:30.320Z,10.20
2023-03-15T15:50:05.279Z,10.10
2023-03-15T15:52:40.568Z,10.10
2023-03-15T15:55:12.850Z,10.00
2023-03-15T15:57:48.406Z,9.90
2023-03-15T16:00:30.202Z,9.90
2023-03-15T16:02:59.753Z,9.80
2023-03-15T16:05:37.193Z,9.70
2023-03-15T16:08:14.281Z,9.70
2023-03-15T16:10:42.985Z,9.80
2023-03-15T16:13:19.298Z,9.80
2023-03-15T16:15:56.250Z,9.80
2023-03-15T16:18:32.187Z,9.70
2023-03-15T16:21:08.721Z,9.60
2023-03-15T16:23:37.456Z,9.60
2023-03-15T16:26:06.045Z,9.60
2023-03-15T16:28:41.598Z,9.50
2023-03-15T16:31:12.789Z,9.50
2023-03-15T16:33:48.265Z,9.40
2023-03-15T16:36:29.531Z,9.30
2023-03-15T16:38:58.287Z,9.30
2023-03-15T16:41:27.554Z,9.20
2023-03-15T16:44:02.499Z,9.20
2023-03-15T16:46:33.078Z,9.20
2023-03-15T16:49:08.509Z,9.10
2023-03-15T16:51:45.404Z,9.00
2023-03-15T16:54:24.541Z,9.00
2023-03-15T16:57:08.316Z,9.00
2023-03-15T16:59:43.420Z,8.90
2023-03-15T17:02:20.383Z,8.80
2023-03-15T17:04:57.189Z,8.80
2023-03-15T17:07:38.579Z,8.80
2023-03-15T17:10:11.371Z,8.70
2023-03-15T17:12:47.271Z,8.70
2023-03-15T17:15:22.749Z,8.60
2023-03-15T17:18:07.784Z,8.60
2023-03-15T17:20:37.544Z,8.60
2023-03-15T17:23:14.026Z,8.50
2023-03-15T17:25:49.631Z,8.50
2023-03-15T17:28:18.617Z,8.50
2023-03-15T17:30:59.836Z,8.40
2023-03-15T17:33:46.388Z,8.40
2023-03-15T17:36:18.045Z,8.30
2023-03-15T17:38:54.607Z,8.40
2023-03-15T17:41:32.761Z,8.30
2023-03-15T17:44:02.243Z,8.40
2023-03-15T17:46:39.375Z,8.30
2023-03-15T17:49:17.162Z,8.30
2023-03-15T17:51:45.998Z,8.20
2023-03-15T17:54:23.630Z,8.20
2023-03-15T17:56:59.544Z,8.20
2023-03-15T17:59:29.707Z,8.10
2023-03-15T18:02:09.728Z,8.10
2023-03-15T18:04:40.407Z,8.10
2023-03-15T18:07:17.087Z,8.00
2023-03-15T18:09:46.285Z,8.00
2023-03-15T18:12:30.935Z,7.90
2023-03-15T18:15:10.910Z,7.90
2023-03-15T18:18:01.720Z,7.80
2023-03-15T18:20:39.711Z,7.80
2023-03-15T18:23:15.953Z,7.80
2023-03-15T18:25:52.021Z,7.80
2023-03-15T18:28:21.130Z,7.70
2023-03-15T18:30:59.043Z,7.70
2023-03-15T18:33:34.832Z,7.60
2023-03-15T18:36:05.463Z,7.60
2023-03-15T18:38:40.410Z,7.50
2023-03-15T18:41:14.607Z,7.50
2023-03-15T18:43:56.401Z,7.40
2023-03-15T18:46:33.521Z,7.40
2023-03-15T18:49:02.638Z,7.40
2023-03-15T18:51:39.476Z,7.40
2023-03-15T18:54:08.253Z,7.30
2023-03-15T18:56:36.973Z,7.30
2023-03-15T18:59:12.808Z,7.30
2023-03-15T19:01:42.307Z,7.30
2023-03-15T19:04:13.325Z,7.20
2023-03-15T19:06:50.430Z,7.20
2023-03-15T19:09:18.609Z,7.10
2023-03-15T19:11:47.512Z,7.10
2023-03-15T19:14:22.789Z,7.00
2023-03-15T19:17:10.529Z,7.00
2023-03-15T19:19:45.534Z,7.00
2023-03-15T19:22:22.888Z,7.00
2023-03-15T19:24:51.647Z,6.90
2023-03-15T19:27:26.562Z,6.90
2023-03-15T19:30:01.733Z,6.80
2023-03-15T19:32:30.325Z,6.80
2023-03-15T19:35:05.475Z,6.80
2023-03-15T19:37:42.673Z,6.70
2023-03-15T19:40:12.950Z,6.70
2023-03-15T19:42:48.526Z,6.60
2023-03-15T19:45:25.255Z,6.60
2023-03-15T19:47:53.831Z,6.60
2023-03-15T19:50:29.468Z,6.50
2023-03-15T19:53:06.801Z,6.50
2023-03-15T19:55:36.837Z,6.50
2023-03-15T19:58:12.732Z,6.40
2023-03-15T20:00:41.294Z,6.40
2023-03-15T20:03:10.254Z,6.40
2023-03-15T20:05:45.853Z,6.40
2023-03-15T20:08:16.032Z,6.20
2023-03-15T20:10:45.582Z,6.30
2023-03-15T20:13:21.550Z,6.20
2023-03-15T20:15:57.473Z,6.20
2023-03-15T20:18:32.763Z,6.20
2023-03-15T20:21:08.401Z,6.20
2023-03-15T20:23:38.968Z,6.20
2023-03-15T20:26:16.520Z,6.10
2023-03-15T20:28:55.786Z,6.10
2023-03-15T20:31:24.764Z,6.10
2023-03-15T20:33:59.745Z,6.10
2023-03-15T20:36:35.793Z,6.00
2023-03-15T20:39:06.255Z,6.00
2023-03-15T20:41:41.536Z,6.00
2023-03-15T20:44:16.866Z,5.90
2023-03-15T20:46:45.580Z,5.90
2023-03-15T20:49:20.762Z,5.90
2023-03-15T20:51:55.647Z,5.90
2023-03-15T20:54:25.950Z,5.80
2023-03-15T20:57:01.675Z,5.80
2023-03-15T20:59:32.712Z,5.80
2023-03-15T21:02:12.661Z,5.70
2023-03-15T21:04:48.766Z,5.70
2023-03-15T21:07:17.849Z,5.70
2023-03-15T21:09:57.861Z,5.60
2023-03-15T21:12:33.948Z,5.60
2023-03-15T21:15:04.189Z,5.60
2023-03-15T21:17:53.202Z,5.60
2023-03-15T21:20:30.312Z,5.60
2023-03-15T21:22:59.692Z,5.60
2023-03-15T21:25:36.784Z,5.50
2023-03-15T21:28:14.953Z,5.50
2023-03-15T21:30:44.685Z,5.50
2023-03-15T21:33:21.834Z,5.50
2023-03-15T21:35:57.979Z,5.50
2023-03-15T21:38:28.117Z,5.50
2023-03-15T21:41:07.383Z,5.50
2023-03-15T21:43:44.080Z,5.50
2023-03-15T21:46:21.067Z,5.50
2023-03-15T21:48:50.328Z,5.40
2023-03-15T21:51:29.349Z,5.40
2023-03-15T21:54:04.905Z,5.40
2023-03-15T21:56:34.949Z,5.40
2023-03-15T21:59:10.820Z,5.30
2023-03-15T22:01:45.839Z,5.30
2023-03-15T22:04:14.876Z,5.30
2023-03-15T22:06:50.867Z,5.30
2023-03-15T22:09:19.690Z,5.30
2023-03-15T22:11:57.575Z,5.30
2023-03-15T22:14:32.836Z,5.30
2023-03-15T22:17:20.631Z,5.30
2023-03-15T22:19:56.065Z,5.30
2023-03-15T22:22:31.628Z,5.30
2023-03-15T22:25:00.079Z,5.30
2023-03-15T22:27:36.732Z,5.30
2023-03-15T22:30:12.539Z,5.30
2023-03-15T22:32:44.651Z,5.30
2023-03-15T22:35:20.747Z,5.30
2023-03-15T22:37:55.641Z,5.30
2023-03-15T22:40:25.780Z,5.30
2023-03-15T22:43:03.867Z,5.30
2023-03-15T22:45:32.695Z,5.30
2023-03-15T22:48:07.998Z,5.30
2023-03-15T22:50:45.828Z,5.30
2023-03-15T22:53:14.305Z,5.20
2023-03-15T22:55:49.935Z,5.20
2023-03-15T22:58:26.637Z,5.20
2023-03-15T23:00:55.815Z,5.20
2023-03-15T23:03:31.874Z,5.20
2023-03-15T23:06:06.843Z,5.20
2023-03-15T23:08:35.265Z,5.30
2023-03-15T23:11:10.645Z,5.30
2023-03-15T23:13:46.798Z,5.30
2023-03-15T23:16:23.808Z,5.30
2023-03-15T23:18:58.857Z,5.30
2023-03-15T23:21:33.618Z,5.40
2023-03-15T23:24:02.608Z,5.40
2023-03-15T23:26:43.868Z,5.40
2023-03-15T23:29:20.691Z,5.40
2023-03-15T23:31:49.759Z,5.40
2023-03-15T23:34:24.923Z,5.40
2023-03-15T23:36:53.775Z,5.40
2023-03-15T23:39:22.715Z,5.40
2023-03-15T23:41:57.674Z,5.50
2023-03-15T23:44:27.865Z,5.50
2023-03-15T23:46:56.621Z,5.50
2023-03-15T23:49:33.698Z,5.50
2023-03-15T23:52:05.978Z,5.50
2023-03-15T23:54:46.929Z,5.50
2023-03-15T23:57:23.737Z,5.50
2023-03-15T23:59:54.034Z,5.50
